VOZ238 YPAD-YSSY
Flight info
| Callsign | VOZ238 |
|---|---|
| Flight time | N/A |
| Altitude | 37000 |
| Route | YPAD/05 3454S13843E AVDEN H247 CULIN Y59 RIVET RIVET4/34L |
| Aircraft | B738/M-SDE2E3FGHIRWXY/LB1 |
Departure
| Time | N/A |
|---|---|
| Airport | Adelaide International Airport (YPAD) |
Arrival
| Time | 2026-05-01 07:26 |
|---|---|
| Airport | Sydney Kingsford Smith International Airport (YSSY) |
| Time | Latitude | Longitude | Altitude | Speed | Heading |
|---|---|---|---|---|---|
| 2026-05-01 07:23 | -34.01840 | 151.19455 | 1309 ft | 142 kts | 352° |
| 2026-05-01 07:23 | -34.00293 | 151.19060 | 946 ft | 143 kts | 351° |
| 2026-05-01 07:24 | -34.00149 | 151.19019 | 918 ft | 143 kts | 349° |
| 2026-05-01 07:24 | -33.99994 | 151.18976 | 884 ft | 144 kts | 351° |
| 2026-05-01 07:24 | -33.99226 | 151.18776 | 716 ft | 144 kts | 353° |
| 2026-05-01 07:24 | -33.98247 | 151.18533 | 446 ft | 144 kts | 351° |
| 2026-05-01 07:25 | -33.97271 | 151.18280 | 250 ft | 143 kts | 352° |
| 2026-05-01 07:25 | -33.96513 | 151.18087 | 88 ft | 141 kts | 351° |
| 2026-05-01 07:25 | -33.96039 | 151.17963 | 20 ft | 138 kts | 350° |
| 2026-05-01 07:25 | -33.95152 | 151.17733 | 20 ft | 108 kts | 347° |
| 2026-05-01 07:26 | -33.94488 | 151.17559 | 23 ft | 88 kts | 347° |
| 2026-05-01 07:26 | -33.94054 | 151.17446 | 18 ft | 48 kts | 347° |
| 2026-05-01 07:26 | -33.93913 | 151.17467 | 17 ft | 14 kts | 66° |
| 2026-05-01 07:26 | -33.93894 | 151.17554 | 20 ft | 0 kts | 75° |
| 2026-05-01 07:27 | -33.93893 | 151.17556 | 20 ft | 1 kts | 75° |
| 2026-05-01 07:27 | -33.93882 | 151.17609 | 19 ft | 10 kts | 75° |
| 2026-05-01 07:27 | -33.93860 | 151.17706 | 18 ft | 12 kts | 75° |
| 2026-05-01 07:28 | -33.93814 | 151.17776 | 22 ft | 11 kts | 13° |
| 2026-05-01 07:28 | -33.93760 | 151.17789 | 25 ft | 12 kts | 13° |
| 2026-05-01 07:28 | -33.93689 | 151.17804 | 30 ft | 12 kts | 8° |
| 2026-05-01 07:28 | -33.93627 | 151.17795 | 30 ft | 8 kts | 326° |
| 2026-05-01 07:29 | -33.93603 | 151.17755 | 29 ft | 2 kts | 303° |